createdAt,value
2023-03-11T00:00:09.153Z,99973.28
2023-03-11T00:02:35.640Z,99976.44
2023-03-11T00:05:02.619Z,99985.78
2023-03-11T00:07:29.192Z,99993.50
2023-03-11T00:09:55.632Z,99988.94
2023-03-11T00:12:22.087Z,99993.81
2023-03-11T00:14:48.540Z,99984.28
2023-03-11T00:17:14.991Z,99991.50
2023-03-11T00:19:41.540Z,99996.22
2023-03-11T00:22:08.106Z,99997.31
2023-03-11T00:24:34.932Z,100007.31
2023-03-11T00:27:01.370Z,100008.81
2023-03-11T00:29:27.944Z,100022.41
2023-03-11T00:31:54.727Z,100014.56
2023-03-11T00:34:21.201Z,100015.91
2023-03-11T00:36:47.647Z,100018.19
2023-03-11T00:39:14.989Z,100038.28
2023-03-11T00:41:41.430Z,100032.19
2023-03-11T00:44:07.927Z,100043.38
2023-03-11T00:46:34.374Z,100038.19
2023-03-11T00:49:00.974Z,100037.16
2023-03-11T00:51:28.114Z,100029.69
2023-03-11T00:53:54.932Z,100043.88
2023-03-11T00:56:21.440Z,100042.34
2023-03-11T00:58:47.851Z,100045.50
2023-03-11T01:01:17.682Z,100047.47
2023-03-11T01:03:44.518Z,100047.63
2023-03-11T01:06:11.442Z,100059.22
2023-03-11T01:08:38.499Z,100053.31
2023-03-11T01:11:07.011Z,100065.31
2023-03-11T01:13:34.026Z,100065.59
2023-03-11T01:16:00.994Z,100063.09
2023-03-11T01:18:27.705Z,100071.19
2023-03-11T01:20:54.258Z,100065.84
2023-03-11T01:23:21.151Z,100066.50
2023-03-11T01:25:48.186Z,100066.97
2023-03-11T01:28:14.657Z,100073.78
2023-03-11T01:30:42.341Z,100081.47
2023-03-11T01:33:15.221Z,100050.19
2023-03-11T01:35:42.292Z,100085.22
2023-03-11T01:38:09.122Z,100086.88
2023-03-11T01:40:38.341Z,100091.91
2023-03-11T01:43:05.992Z,100082.94
2023-03-11T01:45:41.263Z,100074.78
2023-03-11T01:48:09.252Z,100082.78
2023-03-11T01:50:40.224Z,100081.03
2023-03-11T01:53:07.808Z,100086.06
2023-03-11T01:55:34.652Z,100089.72
2023-03-11T01:58:05.771Z,100088.19
2023-03-11T02:00:32.319Z,100087.06
2023-03-11T02:03:02.178Z,100096.78
2023-03-11T02:05:28.834Z,100090.63
2023-03-11T02:07:56.093Z,100101.03
2023-03-11T02:10:22.611Z,100096.50
2023-03-11T02:12:50.757Z,100096.97
2023-03-11T02:15:17.549Z,100090.63
2023-03-11T02:17:44.634Z,100090.50
2023-03-11T02:20:32.642Z,100097.78
2023-03-11T02:23:01.518Z,100098.50
2023-03-11T02:26:00.170Z,100097.19
2023-03-11T02:28:28.218Z,100089.88
2023-03-11T02:30:56.925Z,100103.66
2023-03-11T02:33:28.181Z,100088.41
2023-03-11T02:35:54.960Z,100093.28
2023-03-11T02:38:21.423Z,100100.44
2023-03-11T02:40:48.633Z,100106.56
2023-03-11T02:43:18.047Z,100109.22
2023-03-11T02:45:46.844Z,100113.25
2023-03-11T02:48:14.457Z,100105.50
2023-03-11T02:50:41.466Z,100116.47
2023-03-11T02:53:08.233Z,100112.50
2023-03-11T02:55:34.688Z,100124.53
2023-03-11T02:58:01.546Z,100129.88
2023-03-11T03:00:28.017Z,100127.22
2023-03-11T03:02:54.784Z,100118.28
2023-03-11T03:05:22.536Z,100123.75
2023-03-11T03:07:49.982Z,100119.56
2023-03-11T03:10:17.869Z,100121.94
2023-03-11T03:12:44.293Z,100127.44
2023-03-11T03:15:11.991Z,100118.63
2023-03-11T03:17:38.729Z,100120.91
2023-03-11T03:20:11.196Z,100125.09
2023-03-11T03:22:39.371Z,100132.47
2023-03-11T03:25:06.463Z,100127.81
2023-03-11T03:27:34.300Z,100126.53
2023-03-11T03:30:00.739Z,100129.91
2023-03-11T03:32:27.263Z,100132.00
2023-03-11T03:34:58.847Z,100138.78
2023-03-11T03:37:27.302Z,100145.25
2023-03-11T03:39:54.753Z,100141.88
2023-03-11T03:42:21.768Z,100146.94
2023-03-11T03:44:48.270Z,100164.78
2023-03-11T03:47:14.826Z,100156.78
2023-03-11T03:49:41.528Z,100153.41
2023-03-11T03:52:08.642Z,100153.44
2023-03-11T03:54:35.123Z,100155.44
2023-03-11T03:57:02.108Z,100159.69
2023-03-11T03:59:28.823Z,100170.34
2023-03-11T04:01:55.624Z,100168.50
2023-03-11T04:04:22.111Z,100173.16
2023-03-11T04:06:48.650Z,100179.59
2023-03-11T04:09:15.109Z,100168.25
2023-03-11T04:11:41.622Z,100173.16
2023-03-11T04:14:08.115Z,100185.38
2023-03-11T04:16:34.659Z,100188.19
2023-03-11T04:19:01.150Z,100190.28
2023-03-11T04:21:27.606Z,100197.28
2023-03-11T04:23:54.141Z,100189.88
2023-03-11T04:26:20.596Z,100194.19
2023-03-11T04:28:47.102Z,100195.44
2023-03-11T04:31:13.762Z,100203.16
2023-03-11T04:33:40.326Z,100210.19
2023-03-11T04:36:08.712Z,100204.28
2023-03-11T04:38:35.555Z,100201.50
2023-03-11T04:41:03.203Z,100208.09
2023-03-11T04:43:29.678Z,100212.72
2023-03-11T04:45:56.181Z,100211.03
2023-03-11T04:48:22.785Z,100220.19
2023-03-11T04:50:49.220Z,100213.44
2023-03-11T04:53:15.875Z,100222.41
2023-03-11T04:55:42.379Z,100218.34
2023-03-11T04:58:08.966Z,100216.38
2023-03-11T05:00:35.576Z,100205.59
2023-03-11T05:03:02.162Z,100228.59
2023-03-11T05:05:28.703Z,100212.59
2023-03-11T05:07:55.146Z,100221.31
2023-03-11T05:10:24.319Z,100217.94
2023-03-11T05:12:50.988Z,100224.25
2023-03-11T05:15:18.195Z,100222.56
2023-03-11T05:17:45.117Z,100225.66
2023-03-11T05:20:12.732Z,100235.75
2023-03-11T05:22:39.332Z,100237.69
2023-03-11T05:25:06.683Z,100235.34
2023-03-11T05:27:33.246Z,100243.72
2023-03-11T05:29:59.721Z,100253.13
2023-03-11T05:32:26.342Z,100243.16
2023-03-11T05:34:52.922Z,100246.84
2023-03-11T05:37:19.401Z,100257.22
2023-03-11T05:39:45.856Z,100258.44
2023-03-11T05:42:12.474Z,100254.81
2023-03-11T05:44:39.002Z,100257.22
2023-03-11T05:47:05.466Z,100262.66
2023-03-11T05:49:32.050Z,100266.31
2023-03-11T05:51:58.936Z,100262.94
2023-03-11T05:54:25.601Z,100269.66
2023-03-11T05:56:52.334Z,100271.66
2023-03-11T05:59:19.835Z,100262.53
2023-03-11T06:01:46.351Z,100280.91
2023-03-11T06:04:13.518Z,100280.03
2023-03-11T06:06:43.913Z,100271.06
2023-03-11T06:09:13.318Z,100270.38
2023-03-11T06:11:39.738Z,100260.38
2023-03-11T06:14:06.284Z,100267.44
2023-03-11T06:16:32.986Z,100272.47
2023-03-11T06:19:02.484Z,100266.44
2023-03-11T06:21:28.915Z,100270.78
2023-03-11T06:23:55.402Z,100272.19
2023-03-11T06:26:23.582Z,100285.63
2023-03-11T06:28:51.977Z,100290.25
2023-03-11T06:31:27.050Z,100306.13
2023-03-11T06:33:55.866Z,100303.47
2023-03-11T06:36:23.757Z,100297.53
2023-03-11T06:38:52.364Z,100308.88
2023-03-11T06:41:18.822Z,100298.66
2023-03-11T06:43:45.381Z,100312.22
2023-03-11T06:46:15.205Z,100303.78
2023-03-11T06:48:41.867Z,100305.31
2023-03-11T06:51:09.721Z,100313.31
2023-03-11T06:53:36.203Z,100317.56
2023-03-11T06:56:06.882Z,100326.66
2023-03-11T06:58:35.367Z,100331.56
2023-03-11T07:01:06.980Z,100336.06
2023-03-11T07:03:33.454Z,100336.66
2023-03-11T07:06:00.003Z,100347.91
2023-03-11T07:08:27.215Z,100354.75
2023-03-11T07:11:07.112Z,100360.81
2023-03-11T07:13:33.960Z,100363.47
2023-03-11T07:16:10.476Z,100360.78
2023-03-11T07:18:38.396Z,100370.16
2023-03-11T07:21:06.979Z,100371.16
2023-03-11T07:23:34.140Z,100380.56
2023-03-11T07:26:01.156Z,100386.19
2023-03-11T07:28:29.049Z,100392.19
2023-03-11T07:30:55.663Z,100401.16
2023-03-11T07:33:28.174Z,100398.06
2023-03-11T07:35:54.667Z,100404.56
2023-03-11T07:38:21.483Z,100400.63
2023-03-11T07:40:57.152Z,100409.34
2023-03-11T07:43:23.649Z,100416.03
2023-03-11T07:45:51.424Z,100419.72
2023-03-11T07:48:18.563Z,100422.47
2023-03-11T07:50:45.052Z,100422.47
2023-03-11T07:53:11.493Z,100431.19
2023-03-11T07:55:37.993Z,100430.38
2023-03-11T07:58:04.456Z,100435.44
2023-03-11T08:00:31.026Z,100445.28
2023-03-11T08:02:57.786Z,100443.41
2023-03-11T08:05:24.306Z,100449.47
2023-03-11T08:07:50.739Z,100449.72
2023-03-11T08:10:17.425Z,100451.38
2023-03-11T08:12:43.894Z,100452.66
2023-03-11T08:15:10.981Z,100464.06
2023-03-11T08:17:37.464Z,100446.47
2023-03-11T08:20:05.050Z,100446.56
2023-03-11T08:22:31.546Z,100444.88
2023-03-11T08:24:57.972Z,100442.94
2023-03-11T08:27:24.412Z,100448.94
2023-03-11T08:29:50.848Z,100457.47
2023-03-11T08:32:17.400Z,100463.41
2023-03-11T08:34:44.016Z,100464.50
2023-03-11T08:37:10.578Z,100460.84
2023-03-11T08:39:37.019Z,100465.06
2023-03-11T08:42:03.690Z,100466.69
2023-03-11T08:44:30.331Z,100454.34
2023-03-11T08:46:56.927Z,100465.91
2023-03-11T08:49:23.471Z,100456.66
2023-03-11T08:51:50.076Z,100461.94
2023-03-11T08:54:16.593Z,100468.09
2023-03-11T08:56:43.161Z,100476.63
2023-03-11T08:59:09.612Z,100479.44
2023-03-11T09:01:36.121Z,100468.31
2023-03-11T09:04:02.656Z,100450.31
2023-03-11T09:06:30.528Z,100469.81
2023-03-11T09:08:57.260Z,100463.91
2023-03-11T09:11:23.999Z,100470.66
2023-03-11T09:13:50.441Z,100478.31
2023-03-11T09:16:22.670Z,100475.13
2023-03-11T09:18:49.508Z,100476.78
2023-03-11T09:21:16.026Z,100473.38
2023-03-11T09:23:44.383Z,100459.84
2023-03-11T09:26:11.868Z,100470.41
2023-03-11T09:28:38.487Z,100459.63
2023-03-11T09:31:05.370Z,100463.88
2023-03-11T09:33:31.937Z,100457.63
2023-03-11T09:36:00.279Z,100452.44
2023-03-11T09:38:26.783Z,100455.94
2023-03-11T09:41:05.761Z,100458.06
2023-03-11T09:44:01.852Z,100455.66
2023-03-11T09:46:40.478Z,100465.38
2023-03-11T09:49:39.687Z,100477.53
2023-03-11T09:52:16.194Z,100485.47
2023-03-11T09:54:47.275Z,100490.88
2023-03-11T09:57:21.791Z,100482.34
2023-03-11T09:59:48.833Z,100490.50
2023-03-11T10:02:19.296Z,100506.72
2023-03-11T10:04:54.883Z,100507.91
2023-03-11T10:07:27.738Z,100502.84
2023-03-11T10:10:00.260Z,100503.31
2023-03-11T10:12:36.011Z,100515.22
2023-03-11T10:15:02.403Z,100514.97
2023-03-11T10:18:01.838Z,100516.81
2023-03-11T10:20:40.113Z,100516.19
2023-03-11T10:23:51.274Z,100510.78
2023-03-11T10:26:31.247Z,100513.16
2023-03-11T10:29:16.536Z,100510.84
2023-03-11T10:31:50.524Z,100529.19
2023-03-11T10:34:26.821Z,100530.91
2023-03-11T10:37:06.743Z,100529.81
2023-03-11T10:39:34.387Z,100531.81
2023-03-11T10:42:03.295Z,100540.53
2023-03-11T10:44:35.355Z,100539.63
2023-03-11T10:47:02.180Z,100529.88
2023-03-11T10:49:29.473Z,100537.66
2023-03-11T10:51:57.235Z,100538.72
2023-03-11T10:54:38.399Z,100529.59
2023-03-11T10:57:27.303Z,100529.25
2023-03-11T10:59:56.334Z,100528.59
2023-03-11T11:02:43.219Z,100517.38
2023-03-11T11:05:18.880Z,100513.91
2023-03-11T11:07:47.995Z,100520.59
2023-03-11T11:10:22.029Z,100510.38
2023-03-11T11:13:03.891Z,100520.84
2023-03-11T11:15:36.042Z,100516.53
2023-03-11T11:18:06.112Z,100517.19
2023-03-11T11:20:34.025Z,100509.13
2023-03-11T11:23:03.380Z,100511.50
2023-03-11T11:25:29.935Z,100522.34
2023-03-11T11:27:59.758Z,100516.16
2023-03-11T11:30:28.005Z,100515.69
2023-03-11T11:32:55.743Z,100514.88
2023-03-11T11:35:24.266Z,100521.41
2023-03-11T11:38:00.103Z,100522.44
2023-03-11T11:40:30.808Z,100524.78
2023-03-11T11:43:01.209Z,100531.31
2023-03-11T11:45:36.305Z,100542.22
2023-03-11T11:48:24.139Z,100527.97
2023-03-11T11:50:57.605Z,100541.53
2023-03-11T11:53:46.690Z,100541.34
2023-03-11T11:56:13.499Z,100533.13
2023-03-11T11:58:41.303Z,100536.84
2023-03-11T12:01:23.808Z,100529.66
2023-03-11T12:04:13.263Z,100532.22
2023-03-11T12:07:14.773Z,100534.00
2023-03-11T12:09:47.336Z,100528.47
2023-03-11T12:12:21.339Z,100515.03
2023-03-11T12:15:00.988Z,100526.84
2023-03-11T12:17:30.434Z,100521.78
2023-03-11T12:19:56.702Z,100523.13
2023-03-11T12:22:45.049Z,100524.78
2023-03-11T12:25:39.270Z,100534.53
2023-03-11T12:28:27.656Z,100538.56
2023-03-11T12:30:58.106Z,100532.84
2023-03-11T12:33:32.087Z,100527.16
2023-03-11T12:36:02.351Z,100535.84
2023-03-11T12:38:34.432Z,100516.91
2023-03-11T12:41:27.640Z,100526.81
2023-03-11T12:43:58.014Z,100523.47
2023-03-11T12:46:59.627Z,100521.59
2023-03-11T12:49:33.341Z,100512.69
2023-03-11T12:52:18.618Z,100512.69
2023-03-11T12:54:47.664Z,100503.28
2023-03-11T12:57:17.249Z,100513.66
2023-03-11T13:00:02.168Z,100515.34
2023-03-11T13:02:50.457Z,100511.00
2023-03-11T13:05:34.931Z,100522.09
2023-03-11T13:08:22.920Z,100518.91
2023-03-11T13:10:51.713Z,100518.75
2023-03-11T13:13:39.576Z,100512.72
2023-03-11T13:16:15.028Z,100521.44
2023-03-11T13:18:43.685Z,100514.03
2023-03-11T13:21:28.361Z,100518.09
2023-03-11T13:24:19.926Z,100518.03
2023-03-11T13:26:55.116Z,100514.50
2023-03-11T13:29:57.140Z,100500.41
2023-03-11T13:32:52.523Z,100497.72
2023-03-11T13:35:44.994Z,100512.00
2023-03-11T13:38:39.459Z,100517.88
2023-03-11T13:41:16.271Z,100519.06
2023-03-11T13:43:48.771Z,100494.25
2023-03-11T13:46:27.655Z,100518.41
2023-03-11T13:49:03.750Z,100509.88
2023-03-11T13:51:40.159Z,100517.06
2023-03-11T13:54:22.873Z,100522.94
2023-03-11T13:56:55.694Z,100521.44
2023-03-11T13:59:23.270Z,100507.31
2023-03-11T14:01:51.437Z,100509.47
2023-03-11T14:04:25.453Z,100512.38
2023-03-11T14:06:52.467Z,100512.38
2023-03-11T14:09:20.967Z,100503.28
2023-03-11T14:11:48.879Z,100514.19
2023-03-11T14:14:43.297Z,100514.19
2023-03-11T14:17:16.367Z,100499.03
2023-03-11T14:19:43.657Z,100516.03
2023-03-11T14:22:11.055Z,100519.22
2023-03-11T14:24:39.665Z,100525.47
2023-03-11T14:27:09.343Z,100521.78
2023-03-11T14:29:42.484Z,100522.59
2023-03-11T14:32:27.773Z,100531.84
2023-03-11T14:34:54.994Z,100526.28
2023-03-11T14:37:32.684Z,100537.88
2023-03-11T14:39:59.439Z,100535.03
2023-03-11T14:42:33.878Z,100539.06
2023-03-11T14:45:18.633Z,100545.78
2023-03-11T14:48:08.081Z,100549.34
2023-03-11T14:50:35.139Z,100540.25
2023-03-11T14:53:40.273Z,100548.31
2023-03-11T14:56:12.846Z,100547.00
2023-03-11T14:59:08.385Z,100552.03
2023-03-11T15:01:42.122Z,100540.75
2023-03-11T15:04:13.452Z,100543.44
2023-03-11T15:06:43.233Z,100547.81
2023-03-11T15:09:19.349Z,100551.00
2023-03-11T15:12:01.306Z,100553.69
2023-03-11T15:14:33.515Z,100551.53
2023-03-11T15:17:37.111Z,100556.56
2023-03-11T15:20:24.300Z,100546.47
2023-03-11T15:23:00.652Z,100557.41
2023-03-11T15:25:33.981Z,100554.72
2023-03-11T15:28:24.274Z,100544.28
2023-03-11T15:30:52.363Z,100544.97
2023-03-11T15:33:30.116Z,100551.34
2023-03-11T15:35:56.561Z,100544.28
2023-03-11T15:38:26.183Z,100544.78
2023-03-11T15:40:56.512Z,100546.31
2023-03-11T15:43:30.686Z,100550.00
2023-03-11T15:46:00.192Z,100559.75
2023-03-11T15:48:28.851Z,100549.69
2023-03-11T15:50:57.687Z,100552.38
2023-03-11T15:53:26.554Z,100548.31
2023-03-11T15:56:05.975Z,100553.00
2023-03-11T15:58:33.268Z,100562.13
2023-03-11T16:01:00.040Z,100558.59
2023-03-11T16:03:26.541Z,100559.41
2023-03-11T16:05:53.035Z,100548.84
2023-03-11T16:08:19.470Z,100558.06
2023-03-11T16:10:45.966Z,100558.75
2023-03-11T16:13:13.963Z,100556.41
2023-03-11T16:15:42.278Z,100554.03
2023-03-11T16:18:09.775Z,100545.63
2023-03-11T16:21:04.641Z,100557.06
2023-03-11T16:23:50.205Z,100549.50
2023-03-11T16:26:17.485Z,100552.84
2023-03-11T16:28:44.072Z,100554.34
2023-03-11T16:31:10.646Z,100553.00
2023-03-11T16:33:37.167Z,100557.03
2023-03-11T16:36:04.235Z,100556.50
2023-03-11T16:38:42.108Z,100565.38
2023-03-11T16:41:08.525Z,100563.00
2023-03-11T16:43:34.935Z,100565.69
2023-03-11T16:46:01.467Z,100561.78
2023-03-11T16:48:27.897Z,100563.00
2023-03-11T16:50:54.361Z,100559.94
2023-03-11T16:53:20.848Z,100568.00
2023-03-11T16:55:47.999Z,100566.16
2023-03-11T16:58:15.173Z,100555.91
2023-03-11T17:00:42.297Z,100571.69
2023-03-11T17:03:12.298Z,100572.00
2023-03-11T17:05:38.892Z,100580.19
2023-03-11T17:08:06.496Z,100570.28
2023-03-11T17:10:42.671Z,100574.31
2023-03-11T17:13:11.273Z,100559.78
2023-03-11T17:15:38.298Z,100578.94
2023-03-11T17:18:05.978Z,100577.50
2023-03-11T17:20:33.696Z,100573.09
2023-03-11T17:23:00.494Z,100574.41
2023-03-11T17:25:27.106Z,100591.81
2023-03-11T17:27:53.607Z,100589.22
2023-03-11T17:30:35.611Z,100596.75
2023-03-11T17:33:03.263Z,100589.34
2023-03-11T17:35:29.781Z,100588.72
2023-03-11T17:37:56.388Z,100577.25
2023-03-11T17:40:22.845Z,100587.59
2023-03-11T17:42:49.307Z,100587.53
2023-03-11T17:45:15.758Z,100585.78
2023-03-11T17:47:42.316Z,100591.75
2023-03-11T17:50:09.520Z,100595.75
2023-03-11T17:52:35.996Z,100592.44
2023-03-11T17:55:02.471Z,100602.38
2023-03-11T17:57:28.880Z,100604.69
2023-03-11T17:59:55.320Z,100594.59
2023-03-11T18:02:21.897Z,100599.94
2023-03-11T18:04:53.686Z,100596.56
2023-03-11T18:07:22.913Z,100591.81
2023-03-11T18:09:53.391Z,100599.31
2023-03-11T18:12:20.716Z,100598.72
2023-03-11T18:14:47.374Z,100601.44
2023-03-11T18:17:13.824Z,100601.13
2023-03-11T18:19:40.326Z,100605.94
2023-03-11T18:22:06.864Z,100604.44
2023-03-11T18:24:33.272Z,100600.31
2023-03-11T18:26:59.767Z,100600.75
2023-03-11T18:29:26.195Z,100601.34
2023-03-11T18:31:52.666Z,100599.84
2023-03-11T18:34:19.216Z,100608.00
2023-03-11T18:36:45.729Z,100608.16
2023-03-11T18:39:13.651Z,100604.34
2023-03-11T18:41:41.075Z,100615.19
2023-03-11T18:44:08.394Z,100615.31
2023-03-11T18:46:34.999Z,100608.94
2023-03-11T18:49:03.338Z,100614.59
2023-03-11T18:51:31.679Z,100612.81
2023-03-11T18:53:58.792Z,100609.75
2023-03-11T18:56:25.774Z,100610.56
2023-03-11T18:58:52.480Z,100602.03
2023-03-11T19:01:20.809Z,100581.69
2023-03-11T19:03:58.099Z,100609.09
2023-03-11T19:06:27.010Z,100607.38
2023-03-11T19:08:54.256Z,100613.69
2023-03-11T19:11:23.201Z,100618.41
2023-03-11T19:13:50.421Z,100625.94
2023-03-11T19:16:20.027Z,100636.09
2023-03-11T19:18:46.899Z,100633.56
2023-03-11T19:21:15.032Z,100637.25
2023-03-11T19:23:41.918Z,100633.63
2023-03-11T19:26:08.445Z,100638.66
2023-03-11T19:28:35.408Z,100623.22
2023-03-11T19:31:03.669Z,100640.63
2023-03-11T19:33:30.491Z,100639.09
2023-03-11T19:36:02.160Z,100649.09
2023-03-11T19:38:29.474Z,100645.41
2023-03-11T19:41:07.987Z,100655.69
2023-03-11T19:43:38.137Z,100647.13
2023-03-11T19:46:06.015Z,100633.63
2023-03-11T19:48:33.091Z,100643.88
2023-03-11T19:51:00.109Z,100651.75
2023-03-11T19:53:27.256Z,100650.91
2023-03-11T19:55:56.130Z,100664.41
2023-03-11T19:58:23.816Z,100667.34
2023-03-11T20:00:51.050Z,100666.22
2023-03-11T20:03:19.070Z,100665.13
2023-03-11T20:05:46.916Z,100658.06
2023-03-11T20:08:16.407Z,100662.59
2023-03-11T20:10:45.578Z,100653.31
2023-03-11T20:13:13.170Z,100666.81
2023-03-11T20:15:40.178Z,100666.66
2023-03-11T20:18:07.280Z,100664.53
2023-03-11T20:20:38.097Z,100661.19
2023-03-11T20:23:04.895Z,100653.47
2023-03-11T20:25:32.431Z,100662.47
2023-03-11T20:27:59.903Z,100657.66
2023-03-11T20:30:27.401Z,100651.34
2023-03-11T20:32:54.584Z,100666.13
2023-03-11T20:35:21.999Z,100670.47
2023-03-11T20:37:48.776Z,100651.78
2023-03-11T20:40:17.008Z,100665.72
2023-03-11T20:42:46.625Z,100665.69
2023-03-11T20:45:21.876Z,100657.22
2023-03-11T20:47:50.353Z,100651.34
2023-03-11T20:50:17.278Z,100668.22
2023-03-11T20:52:45.180Z,100668.19
2023-03-11T20:55:12.323Z,100654.28
2023-03-11T20:57:40.039Z,100658.66
2023-03-11T21:00:12.506Z,100658.66
2023-03-11T21:02:40.785Z,100664.69
2023-03-11T21:05:08.726Z,100667.81
2023-03-11T21:07:35.531Z,100668.34
2023-03-11T21:10:04.182Z,100660.88
2023-03-11T21:12:31.406Z,100666.09
2023-03-11T21:15:00.624Z,100661.75
2023-03-11T21:17:27.208Z,100656.28
2023-03-11T21:19:53.824Z,100646.41
2023-03-11T21:22:20.473Z,100658.75
2023-03-11T21:24:53.710Z,100653.44
2023-03-11T21:27:29.626Z,100660.03
2023-03-11T21:29:56.995Z,100660.31
2023-03-11T21:32:25.384Z,100655.13
2023-03-11T21:34:57.159Z,100657.81
2023-03-11T21:37:23.873Z,100644.28
2023-03-11T21:39:50.552Z,100658.91
2023-03-11T21:42:17.677Z,100654.97
2023-03-11T21:44:44.489Z,100658.09
2023-03-11T21:47:11.039Z,100658.63
2023-03-11T21:49:38.732Z,100641.88
2023-03-11T21:52:06.576Z,100649.63
2023-03-11T21:54:33.086Z,100648.75
2023-03-11T21:56:59.701Z,100654.69
2023-03-11T21:59:26.422Z,100650.16
2023-03-11T22:01:53.053Z,100648.75
2023-03-11T22:04:19.895Z,100646.53
2023-03-11T22:06:46.492Z,100645.13
2023-03-11T22:09:13.086Z,100630.53
2023-03-11T22:11:39.853Z,100650.31
2023-03-11T22:14:06.530Z,100647.94
2023-03-11T22:16:33.160Z,100651.03
2023-03-11T22:18:59.872Z,100650.03
2023-03-11T22:21:26.474Z,100653.56
2023-03-11T22:23:52.948Z,100637.53
2023-03-11T22:26:19.502Z,100644.00
2023-03-11T22:28:46.056Z,100641.78
2023-03-11T22:31:14.794Z,100638.41
2023-03-11T22:33:41.371Z,100644.16
2023-03-11T22:36:09.086Z,100640.94
2023-03-11T22:38:36.817Z,100645.00
2023-03-11T22:41:07.411Z,100645.81
2023-03-11T22:43:35.419Z,100649.91
2023-03-11T22:46:02.648Z,100650.22
2023-03-11T22:48:29.202Z,100640.66
2023-03-11T22:50:55.645Z,100644.00
2023-03-11T22:53:23.216Z,100656.53
2023-03-11T22:55:49.628Z,100666.91
2023-03-11T22:58:16.066Z,100662.97
2023-03-11T23:00:44.076Z,100655.28
2023-03-11T23:03:11.929Z,100662.16
2023-03-11T23:05:42.271Z,100646.41
2023-03-11T23:08:15.482Z,100661.16
2023-03-11T23:10:43.851Z,100660.16
2023-03-11T23:13:10.551Z,100660.47
2023-03-11T23:15:40.230Z,100652.16
2023-03-11T23:18:06.924Z,100652.47
2023-03-11T23:20:38.025Z,100653.19
2023-03-11T23:23:05.036Z,100653.00
2023-03-11T23:25:32.351Z,100654.41
2023-03-11T23:28:00.898Z,100656.00
2023-03-11T23:30:27.338Z,100656.41
2023-03-11T23:32:54.013Z,100649.38
2023-03-11T23:35:20.548Z,100647.97
2023-03-11T23:37:50.865Z,100637.84
2023-03-11T23:40:17.747Z,100637.56
2023-03-11T23:42:44.250Z,100635.88
2023-03-11T23:45:11.318Z,100642.50
2023-03-11T23:47:37.793Z,100636.03
2023-03-11T23:50:04.593Z,100647.00
2023-03-11T23:52:31.338Z,100644.88
2023-03-11T23:54:57.775Z,100638.97
2023-03-11T23:57:24.283Z,100640.78
2023-03-11T23:59:50.695Z,100639.38
